createdAt,value
2022-08-08T00:02:31.236Z,2.90
2022-08-08T00:06:00.854Z,3.40
2022-08-08T00:08:27.194Z,2.80
2022-08-08T00:11:46.770Z,3.47
2022-08-08T00:14:57.361Z,3.28
2022-08-08T00:17:48.295Z,3.40
2022-08-08T00:20:21.651Z,3.13
2022-08-08T00:22:54.571Z,3.03
2022-08-08T00:25:45.041Z,3.33
2022-08-08T00:28:34.918Z,3.78
2022-08-08T00:32:29.298Z,3.50
2022-08-08T00:34:59.590Z,3.50
2022-08-08T00:37:48.015Z,3.40
2022-08-08T00:41:10.391Z,3.38
2022-08-08T00:43:40.064Z,3.72
2022-08-08T00:46:17.442Z,3.90
2022-08-08T00:48:59.144Z,3.85
2022-08-08T00:51:45.212Z,3.88
2022-08-08T00:54:30.574Z,3.97
2022-08-08T00:57:34.160Z,4.38
2022-08-08T01:00:37.817Z,4.07
2022-08-08T01:04:01.011Z,4.03
2022-08-08T01:06:34.016Z,4.30
2022-08-08T01:09:36.358Z,4.00
2022-08-08T01:12:52.065Z,3.83
2022-08-08T01:15:57.893Z,4.00
2022-08-08T01:18:54.430Z,4.60
2022-08-08T01:21:35.144Z,4.22
2022-08-08T01:24:32.404Z,4.65
2022-08-08T01:27:44.508Z,4.70
2022-08-08T01:30:53.802Z,4.45
2022-08-08T01:33:53.990Z,4.20
2022-08-08T01:36:48.527Z,4.47
2022-08-08T01:39:28.056Z,4.63
2022-08-08T01:42:16.062Z,4.32
2022-08-08T01:45:29.465Z,4.43
2022-08-08T01:48:30.666Z,4.45
2022-08-08T01:51:32.074Z,4.70
2022-08-08T01:55:19.646Z,5.00
2022-08-08T01:58:11.745Z,5.88
2022-08-08T02:00:50.295Z,5.38
2022-08-08T02:03:57.362Z,5.03
2022-08-08T02:06:54.857Z,4.68
2022-08-08T02:10:03.920Z,4.63
2022-08-08T02:12:55.678Z,5.22
2022-08-08T02:15:22.853Z,5.28
2022-08-08T02:18:13.421Z,5.03
2022-08-08T02:21:13.275Z,5.65
2022-08-08T02:23:59.676Z,5.78
2022-08-08T02:26:34.647Z,5.50
2022-08-08T02:29:20.940Z,5.72
2022-08-08T02:32:07.158Z,4.97
2022-08-08T02:35:08.471Z,6.07
2022-08-08T02:38:16.237Z,5.65
2022-08-08T02:42:03.525Z,6.50
2022-08-08T02:44:56.934Z,6.13
2022-08-08T02:47:55.038Z,6.13
2022-08-08T02:50:47.221Z,5.82
2022-08-08T02:53:24.144Z,6.50
2022-08-08T02:56:03.266Z,5.93
2022-08-08T02:59:26.019Z,6.22
2022-08-08T03:02:28.778Z,6.30
2022-08-08T03:05:10.890Z,6.75
2022-08-08T03:07:58.170Z,6.28
2022-08-08T03:10:53.326Z,6.57
2022-08-08T03:15:59.338Z,7.35
2022-08-08T03:17:00.713Z,6.53
2022-08-08T03:20:10.456Z,7.28
2022-08-08T03:22:57.261Z,8.10
2022-08-08T03:25:33.993Z,7.50
2022-08-08T03:28:13.151Z,7.57
2022-08-08T03:30:48.757Z,7.25
2022-08-08T03:33:55.284Z,6.97
2022-08-08T03:36:10.593Z,7.75
2022-08-08T03:38:58.135Z,8.75
2022-08-08T03:42:28.486Z,8.00
2022-08-08T03:44:25.688Z,8.38
2022-08-08T03:46:53.978Z,8.38
2022-08-08T03:49:57.464Z,8.32
2022-08-08T03:52:16.620Z,8.30
2022-08-08T03:55:01.944Z,8.43
2022-08-08T03:58:30.462Z,8.18
2022-08-08T04:00:26.155Z,8.15
2022-08-08T04:02:59.771Z,8.30
2022-08-08T04:05:36.153Z,9.65
2022-08-08T04:08:07.305Z,8.15
2022-08-08T04:10:37.827Z,9.00
2022-08-08T04:13:18.205Z,8.20
2022-08-08T04:15:54.950Z,9.15
2022-08-08T04:18:41.810Z,9.13
2022-08-08T04:21:14.591Z,9.38
2022-08-08T04:24:05.279Z,8.40
2022-08-08T04:26:56.917Z,8.90
2022-08-08T04:29:25.091Z,10.30
2022-08-08T04:31:58.337Z,9.60
2022-08-08T04:34:32.357Z,9.43
2022-08-08T04:37:19.583Z,9.30
2022-08-08T04:40:06.024Z,9.20
2022-08-08T04:42:37.492Z,8.85
2022-08-08T04:45:14.931Z,8.90
2022-08-08T04:47:46.496Z,8.70
2022-08-08T04:50:24.622Z,10.63
2022-08-08T04:52:58.942Z,9.43
2022-08-08T04:55:47.711Z,9.68
2022-08-08T04:58:18.107Z,9.05
2022-08-08T05:00:45.809Z,9.63
2022-08-08T05:03:18.814Z,9.50
2022-08-08T05:06:13.308Z,9.82
2022-08-08T05:08:51.639Z,10.57
2022-08-08T05:11:23.157Z,10.68
2022-08-08T05:13:57.583Z,10.93
2022-08-08T05:16:55.076Z,10.40
2022-08-08T05:20:11.096Z,10.63
2022-08-08T05:22:07.738Z,9.48
2022-08-08T05:24:37.160Z,10.57
2022-08-08T05:27:05.777Z,10.57
2022-08-08T05:29:38.164Z,9.77
2022-08-08T05:32:09.369Z,9.80
2022-08-08T05:34:49.225Z,9.68
2022-08-08T05:37:51.958Z,10.40
2022-08-08T05:40:18.174Z,10.52
2022-08-08T05:42:53.551Z,10.27
2022-08-08T05:45:25.288Z,9.90
2022-08-08T05:48:08.675Z,9.63
2022-08-08T05:50:39.176Z,10.95
2022-08-08T05:53:53.719Z,10.40
2022-08-08T05:56:11.550Z,10.00
2022-08-08T05:58:54.208Z,10.70
2022-08-08T06:01:55.922Z,10.95
2022-08-08T06:04:23.719Z,10.43
2022-08-08T06:06:53.546Z,9.60
2022-08-08T06:09:58.299Z,9.30
2022-08-08T06:12:29.766Z,9.82
2022-08-08T06:15:04.067Z,8.95
2022-08-08T06:18:18.154Z,9.85
2022-08-08T06:20:22.934Z,9.77
2022-08-08T06:22:53.508Z,9.48
2022-08-08T06:25:33.132Z,9.50
2022-08-08T06:28:16.046Z,9.30
2022-08-08T06:30:44.591Z,9.82
2022-08-08T06:33:18.109Z,8.63
2022-08-08T06:36:09.103Z,9.05
2022-08-08T06:38:39.403Z,9.55
2022-08-08T06:41:13.052Z,9.43
2022-08-08T06:43:47.675Z,9.65
2022-08-08T06:46:24.468Z,8.27
2022-08-08T06:48:52.021Z,8.75
2022-08-08T06:51:22.374Z,8.18
2022-08-08T06:53:56.383Z,8.65
2022-08-08T06:56:24.933Z,7.85
2022-08-08T06:58:58.031Z,8.23
2022-08-08T07:02:17.158Z,8.18
2022-08-08T07:04:40.653Z,7.80
2022-08-08T07:07:22.228Z,7.82
2022-08-08T07:10:01.586Z,7.50
2022-08-08T07:12:42.955Z,7.47
2022-08-08T07:15:32.177Z,8.55
2022-08-08T07:18:36.639Z,7.03
2022-08-08T07:21:04.850Z,6.95
2022-08-08T07:24:01.672Z,8.05
2022-08-08T07:26:35.603Z,7.55
2022-08-08T07:29:05.495Z,7.60
2022-08-08T07:31:36.478Z,8.63
2022-08-08T07:34:09.110Z,7.57
2022-08-08T07:36:50.241Z,6.72
2022-08-08T07:39:28.928Z,6.53
2022-08-08T07:42:05.074Z,5.97
2022-08-08T07:44:38.138Z,6.25
2022-08-08T07:47:09.101Z,6.32
2022-08-08T07:49:39.855Z,6.20
2022-08-08T07:52:13.318Z,6.30
2022-08-08T07:55:03.230Z,5.95
2022-08-08T07:57:43.279Z,5.88
2022-08-08T08:00:17.325Z,6.47
2022-08-08T08:02:51.918Z,5.32
2022-08-08T08:05:19.278Z,5.93
2022-08-08T08:08:02.609Z,5.78
2022-08-08T08:10:35.653Z,6.20
2022-08-08T08:13:43.027Z,4.90
2022-08-08T08:16:28.523Z,4.10
2022-08-08T08:19:08.081Z,6.20
2022-08-08T08:21:52.425Z,5.88
2022-08-08T08:24:30.887Z,4.60
2022-08-08T08:27:03.671Z,5.65
2022-08-08T08:29:31.411Z,4.95
2022-08-08T08:32:05.414Z,4.32
2022-08-08T08:34:33.910Z,4.60
2022-08-08T08:37:07.849Z,4.50
2022-08-08T08:40:00.622Z,4.03
2022-08-08T08:42:29.358Z,4.97
2022-08-08T08:45:10.275Z,3.95
2022-08-08T08:47:58.601Z,4.30
2022-08-08T08:50:34.691Z,3.78
2022-08-08T08:53:28.041Z,3.90
2022-08-08T08:56:02.992Z,4.00
2022-08-08T08:58:42.914Z,4.10
2022-08-08T09:01:13.170Z,3.60
2022-08-08T09:03:46.528Z,3.63
2022-08-08T09:06:28.433Z,4.00
2022-08-08T09:09:26.161Z,3.38
2022-08-08T09:12:02.222Z,2.90
2022-08-08T09:14:35.632Z,3.60
2022-08-08T09:17:17.355Z,3.00
2022-08-08T09:21:59.246Z,3.30
2022-08-08T09:22:35.716Z,3.90
2022-08-08T09:25:05.070Z,3.40
2022-08-08T09:27:55.985Z,3.28
2022-08-08T09:30:26.861Z,3.00
2022-08-08T09:33:55.644Z,3.90
2022-08-08T09:35:52.203Z,2.92
2022-08-08T09:38:53.817Z,2.97
2022-08-08T09:41:54.713Z,3.63
2022-08-08T09:44:41.166Z,3.55
2022-08-08T09:48:05.159Z,3.83
2022-08-08T09:50:03.317Z,3.20
2022-08-08T09:52:56.476Z,3.70
2022-08-08T09:56:04.705Z,3.50
2022-08-08T09:58:27.636Z,3.28
2022-08-08T10:01:14.618Z,2.90
2022-08-08T10:04:02.236Z,3.30
2022-08-08T10:06:45.116Z,3.17
2022-08-08T10:09:14.936Z,3.25
2022-08-08T10:12:27.985Z,3.25
2022-08-08T10:14:40.980Z,2.80
2022-08-08T10:17:56.624Z,3.45
2022-08-08T10:20:04.583Z,3.30
2022-08-08T10:22:39.214Z,3.25
2022-08-08T10:25:23.491Z,2.67
2022-08-08T10:27:53.290Z,2.72
2022-08-08T10:30:59.654Z,2.28
2022-08-08T10:33:18.529Z,2.50
2022-08-08T10:36:09.338Z,2.40
2022-08-08T10:38:44.340Z,2.33
2022-08-08T10:41:20.137Z,2.28
2022-08-08T10:43:51.779Z,1.77
2022-08-08T10:46:31.922Z,1.98
2022-08-08T10:48:59.614Z,1.50
2022-08-08T10:51:47.114Z,1.50
2022-08-08T10:54:24.733Z,1.40
2022-08-08T10:56:57.633Z,1.60
2022-08-08T10:59:31.155Z,1.13
2022-08-08T11:02:07.309Z,1.60
2022-08-08T11:04:53.576Z,1.70
2022-08-08T11:08:36.971Z,1.30
2022-08-08T11:10:29.245Z,1.25
2022-08-08T11:16:01.371Z,1.80
2022-08-08T11:18:39.985Z,1.13
2022-08-08T11:21:09.913Z,1.15
2022-08-08T11:23:42.608Z,0.90
2022-08-08T11:26:18.758Z,1.35
2022-08-08T11:28:47.779Z,1.20
2022-08-08T11:31:20.873Z,1.25
2022-08-08T11:34:01.928Z,1.33
2022-08-08T11:36:36.465Z,1.33
2022-08-08T11:39:05.668Z,1.10
2022-08-08T11:41:45.373Z,1.20
2022-08-08T11:44:14.935Z,0.95
2022-08-08T11:46:42.997Z,1.17
2022-08-08T11:49:14.597Z,0.90
2022-08-08T11:51:50.697Z,1.10
2022-08-08T11:54:34.404Z,1.35
2022-08-08T11:57:17.935Z,1.30
2022-08-08T12:00:06.325Z,1.02
2022-08-08T12:02:54.841Z,1.25
2022-08-08T12:05:33.849Z,1.33
2022-08-08T12:08:01.999Z,1.02
2022-08-08T12:10:32.026Z,1.40
2022-08-08T12:13:09.663Z,1.60
2022-08-08T12:15:41.934Z,1.65
2022-08-08T12:18:24.213Z,1.33
2022-08-08T12:20:58.900Z,1.30
2022-08-08T12:23:43.949Z,1.27
2022-08-08T12:26:45.867Z,1.00
2022-08-08T12:29:40.934Z,1.20
2022-08-08T12:32:17.364Z,0.95
2022-08-08T12:35:01.170Z,1.20
2022-08-08T12:37:40.893Z,1.25
2022-08-08T12:40:22.207Z,1.50
2022-08-08T12:42:53.599Z,1.40
2022-08-08T12:45:58.659Z,1.40
2022-08-08T12:48:35.947Z,1.33
2022-08-08T12:51:05.745Z,1.23
2022-08-08T12:53:42.424Z,1.40
2022-08-08T12:56:19.849Z,1.30
2022-08-08T12:58:54.347Z,1.42
2022-08-08T13:01:36.583Z,1.00
2022-08-08T13:04:18.841Z,1.05
2022-08-08T13:06:56.183Z,1.10
2022-08-08T13:09:57.543Z,1.25
2022-08-08T13:12:32.584Z,1.30
2022-08-08T13:15:06.648Z,1.20
2022-08-08T13:17:54.216Z,1.40
2022-08-08T13:20:25.958Z,1.20
2022-08-08T13:23:30.123Z,1.30
2022-08-08T13:25:51.031Z,1.40
2022-08-08T13:28:32.432Z,1.38
2022-08-08T13:31:04.646Z,1.27
2022-08-08T13:33:42.027Z,1.20
2022-08-08T13:36:10.965Z,1.10
2022-08-08T13:38:39.963Z,1.42
2022-08-08T13:41:15.898Z,1.10
2022-08-08T13:43:46.961Z,1.73
2022-08-08T13:46:27.018Z,2.28
2022-08-08T13:50:32.405Z,1.15
2022-08-08T13:51:58.718Z,1.00
2022-08-08T13:54:31.610Z,1.08
2022-08-08T13:57:02.940Z,1.00
2022-08-08T13:59:32.843Z,1.00
2022-08-08T14:02:07.567Z,1.15
2022-08-08T14:04:52.738Z,0.80
2022-08-08T14:07:22.787Z,0.80
2022-08-08T14:10:05.126Z,0.98
2022-08-08T14:12:43.871Z,0.85
2022-08-08T14:15:23.735Z,1.02
2022-08-08T14:18:36.990Z,1.05
2022-08-08T14:20:55.815Z,0.75
2022-08-08T14:24:04.021Z,0.98
2022-08-08T14:26:28.650Z,0.73
2022-08-08T14:28:57.778Z,1.00
2022-08-08T14:32:06.145Z,1.13
2022-08-08T14:34:22.906Z,0.93
2022-08-08T14:36:54.944Z,0.93
2022-08-08T14:39:25.111Z,1.00
2022-08-08T14:42:12.049Z,0.82
2022-08-08T14:44:57.772Z,1.00
2022-08-08T14:47:36.534Z,0.80
2022-08-08T14:50:14.173Z,0.65
2022-08-08T14:52:48.840Z,1.15
2022-08-08T14:55:22.792Z,1.08
2022-08-08T14:58:12.005Z,0.85
2022-08-08T15:00:45.686Z,1.00
2022-08-08T15:03:17.213Z,1.40
2022-08-08T15:05:53.877Z,1.00
2022-08-08T15:08:35.664Z,1.15
2022-08-08T15:11:09.210Z,0.80
2022-08-08T15:14:00.414Z,0.60
2022-08-08T15:16:28.128Z,0.90
2022-08-08T15:18:58.417Z,1.20
2022-08-08T15:21:27.820Z,0.70
2022-08-08T15:23:58.428Z,0.90
2022-08-08T15:26:29.287Z,1.00
2022-08-08T15:28:57.464Z,1.05
2022-08-08T15:31:56.011Z,0.90
2022-08-08T15:34:18.651Z,0.90
2022-08-08T15:36:59.737Z,0.82
2022-08-08T15:39:38.006Z,1.00
2022-08-08T15:42:13.294Z,0.80
2022-08-08T15:44:55.812Z,1.00
2022-08-08T15:47:26.027Z,0.85
2022-08-08T15:49:55.954Z,1.00
2022-08-08T15:52:24.847Z,1.00
2022-08-08T15:54:54.295Z,0.77
2022-08-08T15:57:24.632Z,1.10
2022-08-08T16:00:05.944Z,0.90
2022-08-08T16:02:44.210Z,0.90
2022-08-08T16:05:23.586Z,0.98
2022-08-08T16:07:53.807Z,1.10
2022-08-08T16:13:09.302Z,1.05
2022-08-08T16:13:30.903Z,1.05
2022-08-08T16:16:16.594Z,0.90
2022-08-08T16:18:57.212Z,1.10
2022-08-08T16:21:27.878Z,1.17
2022-08-08T16:23:56.459Z,1.13
2022-08-08T16:26:33.268Z,0.95
2022-08-08T16:29:09.094Z,1.40
2022-08-08T16:31:48.429Z,2.08
2022-08-08T16:34:19.631Z,2.88
2022-08-08T16:36:50.448Z,2.28
2022-08-08T16:39:49.160Z,0.88
2022-08-08T16:42:06.281Z,1.20
2022-08-08T16:44:34.573Z,1.00
2022-08-08T16:47:31.522Z,1.00
2022-08-08T16:50:13.733Z,1.10
2022-08-08T16:55:03.023Z,1.02
2022-08-08T16:55:52.207Z,0.82
2022-08-08T16:58:26.219Z,1.10
2022-08-08T17:00:55.353Z,1.05
2022-08-08T17:04:01.096Z,1.10
2022-08-08T17:06:36.032Z,0.90
2022-08-08T17:08:59.919Z,0.90
2022-08-08T17:11:27.948Z,1.15
2022-08-08T17:14:01.077Z,1.00
2022-08-08T17:16:31.465Z,1.00
2022-08-08T17:19:00.662Z,1.15
2022-08-08T17:21:41.504Z,0.80
2022-08-08T17:24:10.669Z,1.10
2022-08-08T17:26:54.891Z,1.00
2022-08-08T17:29:25.560Z,0.93
2022-08-08T17:31:54.955Z,1.27
2022-08-08T17:34:53.451Z,1.10
2022-08-08T17:37:14.763Z,1.00
2022-08-08T17:40:03.703Z,1.00
2022-08-08T17:42:31.517Z,1.20
2022-08-08T17:45:01.529Z,0.85
2022-08-08T17:47:40.554Z,1.00
2022-08-08T17:50:11.734Z,0.85
2022-08-08T17:52:38.997Z,0.88
2022-08-08T17:56:04.204Z,0.80
2022-08-08T17:57:59.031Z,0.90
2022-08-08T18:00:30.728Z,0.90
2022-08-08T18:03:08.493Z,0.80
2022-08-08T18:05:44.086Z,0.90
2022-08-08T18:08:37.971Z,0.85
2022-08-08T18:11:16.465Z,0.70
2022-08-08T18:13:46.193Z,0.88
2022-08-08T18:16:16.949Z,1.17
2022-08-08T18:18:57.552Z,0.80
2022-08-08T18:21:59.805Z,1.00
2022-08-08T18:24:19.541Z,0.85
2022-08-08T18:26:54.968Z,0.98
2022-08-08T18:29:33.789Z,0.77
2022-08-08T18:32:07.184Z,1.08
2022-08-08T18:34:36.313Z,0.95
2022-08-08T18:37:09.462Z,1.00
2022-08-08T18:39:41.132Z,1.33
2022-08-08T18:42:16.177Z,0.70
2022-08-08T18:44:55.091Z,0.80
2022-08-08T18:47:25.375Z,0.90
2022-08-08T18:49:58.575Z,0.90
2022-08-08T18:52:30.689Z,0.63
2022-08-08T18:55:00.858Z,0.95
2022-08-08T18:57:45.205Z,0.90
2022-08-08T19:00:20.087Z,0.80
2022-08-08T19:02:55.656Z,0.90
2022-08-08T19:05:31.950Z,0.90
2022-08-08T19:08:25.665Z,0.90
2022-08-08T19:11:02.618Z,0.95
2022-08-08T19:13:52.600Z,0.90
2022-08-08T19:16:23.631Z,1.00
2022-08-08T19:19:02.009Z,1.38
2022-08-08T19:21:33.531Z,1.10
2022-08-08T19:24:33.962Z,1.30
2022-08-08T19:27:06.958Z,1.00
2022-08-08T19:29:35.634Z,0.90
2022-08-08T19:32:13.184Z,0.88
2022-08-08T19:34:51.576Z,1.00
2022-08-08T19:37:42.261Z,0.85
2022-08-08T19:40:15.880Z,1.40
2022-08-08T19:42:50.447Z,0.90
2022-08-08T19:45:59.297Z,0.90
2022-08-08T19:48:28.126Z,0.70
2022-08-08T19:50:59.323Z,0.90
2022-08-08T19:53:53.274Z,1.10
2022-08-08T19:56:25.923Z,1.08
2022-08-08T19:59:04.545Z,1.15
2022-08-08T20:02:01.365Z,1.08
2022-08-08T20:04:25.819Z,1.00
2022-08-08T20:06:53.581Z,0.95
2022-08-08T20:09:24.465Z,1.20
2022-08-08T20:11:52.928Z,0.77
2022-08-08T20:14:34.159Z,1.00
2022-08-08T20:17:04.574Z,1.35
2022-08-08T20:19:33.436Z,0.88
2022-08-08T20:22:04.914Z,0.98
2022-08-08T20:24:40.196Z,0.85
2022-08-08T20:27:10.178Z,1.00
2022-08-08T20:29:55.712Z,1.27
2022-08-08T20:32:31.933Z,0.93
2022-08-08T20:35:02.160Z,1.20
2022-08-08T20:37:31.297Z,0.98
2022-08-08T20:40:16.606Z,0.93
2022-08-08T20:42:54.148Z,1.10
2022-08-08T20:45:57.686Z,1.10
2022-08-08T20:48:10.002Z,0.90
2022-08-08T20:50:37.999Z,0.90
2022-08-08T20:53:06.845Z,1.10
2022-08-08T20:55:51.352Z,0.98
2022-08-08T20:58:23.240Z,1.30
2022-08-08T21:00:53.719Z,1.10
2022-08-08T21:03:23.477Z,1.23
2022-08-08T21:05:59.176Z,1.00
2022-08-08T21:08:36.403Z,1.10
2022-08-08T21:11:18.689Z,1.42
2022-08-08T21:14:07.503Z,1.00
2022-08-08T21:16:34.901Z,1.30
2022-08-08T21:19:03.365Z,1.20
2022-08-08T21:21:39.570Z,1.25
2022-08-08T21:24:26.893Z,1.00
2022-08-08T21:26:58.258Z,1.10
2022-08-08T21:30:05.359Z,1.00
2022-08-08T21:32:24.842Z,1.30
2022-08-08T21:34:56.553Z,1.05
2022-08-08T21:37:54.467Z,1.20
2022-08-08T21:40:31.142Z,1.10
2022-08-08T21:43:01.335Z,1.17
2022-08-08T21:48:01.787Z,0.98
2022-08-08T21:48:21.770Z,1.10
2022-08-08T21:51:03.754Z,1.10
2022-08-08T21:54:36.228Z,1.02
2022-08-08T21:56:31.190Z,1.05
2022-08-08T21:59:09.749Z,1.20
2022-08-08T22:01:41.361Z,1.17
2022-08-08T22:04:12.339Z,1.20
2022-08-08T22:06:40.765Z,1.02
2022-08-08T22:09:14.436Z,1.00
2022-08-08T22:11:51.235Z,1.30
2022-08-08T22:14:29.093Z,1.30
2022-08-08T22:17:01.064Z,1.17
2022-08-08T22:19:30.421Z,1.13
2022-08-08T22:22:19.852Z,1.20
2022-08-08T22:24:56.131Z,1.20
2022-08-08T22:27:56.034Z,1.20
2022-08-08T22:30:13.560Z,0.90
2022-08-08T22:32:42.012Z,1.40
2022-08-08T22:35:23.802Z,1.20
2022-08-08T22:37:54.731Z,1.30
2022-08-08T22:40:25.995Z,1.52
2022-08-08T22:42:59.149Z,1.13
2022-08-08T22:45:28.933Z,1.23
2022-08-08T22:47:56.269Z,1.38
2022-08-08T22:50:28.578Z,1.10
2022-08-08T22:54:27.960Z,1.58
2022-08-08T22:55:57.824Z,1.35
2022-08-08T22:58:30.952Z,1.85
2022-08-08T23:01:00.054Z,1.10
2022-08-08T23:03:34.457Z,1.42
2022-08-08T23:06:18.935Z,1.10
2022-08-08T23:08:58.131Z,1.10
2022-08-08T23:12:18.299Z,1.08
2022-08-08T23:14:20.427Z,1.30
2022-08-08T23:16:59.552Z,1.30
2022-08-08T23:19:30.728Z,1.30
2022-08-08T23:22:04.580Z,1.60
2022-08-08T23:24:36.223Z,1.20
2022-08-08T23:27:05.984Z,1.00
2022-08-08T23:29:33.579Z,1.17
2022-08-08T23:32:01.823Z,1.02
2022-08-08T23:34:32.091Z,1.65
2022-08-08T23:37:02.730Z,1.30
2022-08-08T23:39:41.723Z,1.27
2022-08-08T23:42:21.250Z,1.48
2022-08-08T23:44:52.004Z,1.15
2022-08-08T23:49:05.627Z,1.30
2022-08-08T23:50:30.840Z,1.20
2022-08-08T23:52:59.293Z,1.40
2022-08-08T23:55:32.633Z,1.33
2022-08-08T23:58:05.783Z,1.20
